Time;durP1;ratioP1;P1;durP2;ratioP2;P2;SDS_P1;SDS_P2;PMS_P1;PMS_P2;Temp;Humidity;BMP_temperature;BMP_pressure;BME280_temperature;BME280_humidity;BME280_pressure;Samples;Min_cycle;Max_cycle;Signal;HPM_P1;HPM_P2
2022/08/26 00:01:15;;;;;;;3.03;2.58;;;22.40;55.50;;;;;;6058126;23;20152;-84
2022/08/26 00:03:43;;;;;;;2.50;2.30;;;22.40;55.50;;;;;;6082230;23;20183;-83
2022/08/26 00:06:09;;;;;;;2.60;2.40;;;22.40;55.50;;;;;;6070296;23;20202;-84
2022/08/26 00:08:36;;;;;;;2.63;2.42;;;22.40;55.50;;;;;;6186671;23;20240;-84
2022/08/26 00:11:03;;;;;;;2.80;2.60;;;22.40;55.50;;;;;;6086363;23;20226;-83
2022/08/26 00:13:30;;;;;;;2.80;2.60;;;22.40;56.20;;;;;;6086821;23;20177;-83
2022/08/26 00:15:55;;;;;;;2.88;2.67;;;22.40;55.50;;;;;;6086631;23;20159;-82
2022/08/26 00:18:21;;;;;;;2.70;2.42;;;22.40;55.50;;;;;;6160499;23;20221;-84
2022/08/26 00:20:47;;;;;;;2.85;2.60;;;22.40;55.50;;;;;;6160533;23;20142;-84
2022/08/26 00:23:13;;;;;;;2.80;2.60;;;22.40;55.50;;;;;;6160375;23;20147;-84
2022/08/26 00:25:38;;;;;;;2.67;2.47;;;22.40;55.50;;;;;;6160694;23;20169;-83
2022/08/26 00:28:05;;;;;;;2.60;2.40;;;22.40;55.60;;;;;;6186433;23;20163;-84
2022/08/26 00:30:30;;;;;;;2.78;2.55;;;22.40;55.50;;;;;;6160622;23;20135;-84
2022/08/26 00:32:57;;;;;;;2.63;2.42;;;22.40;55.60;;;;;;6160366;23;20369;-83
2022/08/26 00:35:24;;;;;;;2.72;2.53;;;22.40;55.60;;;;;;6136255;23;20143;-83
2022/08/26 00:37:50;;;;;;;2.88;2.67;;;22.40;55.60;;;;;;6160176;23;20169;-84
2022/08/26 00:40:19;;;;;;;2.75;2.55;;;22.40;55.70;;;;;;6135883;23;20143;-84
2022/08/26 00:42:45;;;;;;;3.10;2.80;;;22.40;55.70;;;;;;6160266;23;20634;-83
2022/08/26 00:45:12;;;;;;;2.65;2.45;;;22.30;55.60;;;;;;6160809;23;20174;-83
2022/08/26 00:47:51;;;;;;;2.70;2.50;;;22.40;55.60;;;;;;6160549;23;20187;-83
2022/08/26 00:50:21;;;;;;;4.13;2.72;;;22.40;55.70;;;;;;6186545;23;20524;-82
2022/08/26 00:52:47;;;;;;;2.90;2.70;;;22.40;55.80;;;;;;6135668;23;20479;-82
2022/08/26 00:55:16;;;;;;;2.40;2.20;;;22.30;55.70;;;;;;6160096;23;20131;-83
2022/08/26 00:57:43;;;;;;;2.67;2.47;;;22.30;55.70;;;;;;6160184;23;20222;-85
2022/08/26 01:00:12;;;;;;;3.50;2.53;;;22.30;55.80;;;;;;6160489;23;20139;-83
2022/08/26 01:02:38;;;;;;;3.00;2.80;;;22.30;55.80;;;;;;6160015;23;20143;-84
2022/08/26 01:05:04;;;;;;;2.80;2.60;;;22.30;55.80;;;;;;6160078;23;20513;-85
2022/08/26 01:07:30;;;;;;;3.17;2.88;;;22.30;55.80;;;;;;6159877;23;20225;-82
2022/08/26 01:09:56;;;;;;;2.75;2.55;;;22.30;55.90;;;;;;6135225;23;20209;-84
2022/08/26 01:12:23;;;;;;;2.60;2.40;;;22.30;55.80;;;;;;6135660;23;20568;-83
2022/08/26 01:14:50;;;;;;;3.03;2.72;;;22.30;55.80;;;;;;6160094;23;20135;-83
2022/08/26 01:17:17;;;;;;;3.03;2.35;;;22.30;55.80;;;;;;6134663;23;20151;-84
2022/08/26 01:19:48;;;;;;;2.60;2.40;;;22.30;55.90;;;;;;6110026;23;20158;-85
2022/08/26 01:22:45;;;;;;;2.67;2.47;;;22.30;55.80;;;;;;6159643;23;20135;-82
2022/08/26 01:25:10;;;;;;;2.70;2.50;;;22.30;55.90;;;;;;6159940;23;20222;-83
2022/08/26 01:27:36;;;;;;;2.58;2.38;;;22.30;55.90;;;;;;6135395;23;20142;-84
2022/08/26 01:30:02;;;;;;;3.10;2.80;;;22.30;55.90;;;;;;6147432;23;20229;-83
2022/08/26 01:32:29;;;;;;;2.80;2.60;;;22.20;55.80;;;;;;6186011;23;20637;-83
2022/08/26 01:34:56;;;;;;;2.60;2.40;;;22.20;55.90;;;;;;6159768;23;20139;-84
2022/08/26 01:37:32;;;;;;;3.00;2.70;;;22.30;55.90;;;;;;6159977;23;20559;-84
2022/08/26 01:39:57;;;;;;;3.10;2.80;;;22.30;56.00;;;;;;6135029;23;20174;-83
2022/08/26 01:42:24;;;;;;;2.75;2.55;;;22.30;56.00;;;;;;6159708;23;20139;-84
2022/08/26 01:44:58;;;;;;;3.00;2.70;;;22.30;56.00;;;;;;6160015;23;20143;-84
2022/08/26 01:47:25;;;;;;;2.60;2.40;;;22.30;56.10;;;;;;6159776;23;20149;-82
2022/08/26 01:49:53;;;;;;;2.75;2.55;;;22.20;56.00;;;;;;6159636;23;20159;-84
2022/08/26 01:52:25;;;;;;;2.78;2.58;;;22.30;56.10;;;;;;6134405;23;20147;-83
2022/08/26 01:54:51;;;;;;;3.10;2.80;;;22.30;56.10;;;;;;6159605;23;20128;-83
2022/08/26 01:57:18;;;;;;;2.65;2.45;;;22.30;56.10;;;;;;6159965;23;20500;-82
2022/08/26 01:59:44;;;;;;;2.78;2.58;;;22.30;56.20;;;;;;6159735;23;20154;-83
2022/08/26 02:02:10;;;;;;;2.60;2.40;;;22.30;56.10;;;;;;6134786;23;20154;-83
2022/08/26 02:04:39;;;;;;;2.72;2.53;;;22.20;56.20;;;;;;6134788;23;20486;-83
2022/08/26 02:07:06;;;;;;;2.70;2.50;;;22.20;56.10;;;;;;6159777;23;20190;-83
2022/08/26 02:09:32;;;;;;;2.50;2.30;;;22.30;56.20;;;;;;6135007;23;20181;-84
2022/08/26 02:12:00;;;;;;;2.80;2.50;;;22.20;56.20;;;;;;6159754;23;20131;-84
2022/08/26 02:14:32;;;;;;;2.50;2.30;;;22.20;56.10;;;;;;6159540;23;20131;-82
2022/08/26 02:16:58;;;;;;;2.60;2.40;;;22.20;56.20;;;;;;6159487;23;20139;-85
2022/08/26 02:19:29;;;;;;;2.70;2.50;;;22.20;56.20;;;;;;6159453;23;20590;-83
2022/08/26 02:21:54;;;;;;;2.50;2.30;;;22.20;56.20;;;;;;6135644;23;20161;-84
2022/08/26 02:24:22;;;;;;;2.80;2.60;;;22.20;56.20;;;;;;6159468;23;20218;-82
2022/08/26 02:26:48;;;;;;;2.50;2.30;;;22.20;56.20;;;;;;6159321;23;20234;-82
2022/08/26 02:29:36;;;;;;;2.42;2.22;;;22.20;56.20;;;;;;6159111;23;20614;-84
2022/08/26 02:32:02;;;;;;;2.90;2.60;;;22.30;56.30;;;;;;6159356;23;20633;-83
2022/08/26 02:34:30;;;;;;;2.95;2.67;;;22.20;56.20;;;;;;6185375;23;20135;-85
2022/08/26 02:36:58;;;;;;;2.40;2.20;;;22.20;56.30;;;;;;6134850;23;20139;-83
2022/08/26 02:39:24;;;;;;;2.70;2.50;;;22.20;56.30;;;;;;6109715;23;20162;-82
2022/08/26 02:41:51;;;;;;;2.80;2.60;;;22.20;56.30;;;;;;6135464;23;20135;-84
2022/08/26 02:44:18;;;;;;;2.50;2.30;;;22.20;56.30;;;;;;6185676;23;20226;-82
2022/08/26 02:46:44;;;;;;;2.60;2.40;;;22.20;56.40;;;;;;6085699;23;20159;-85
2022/08/26 02:49:10;;;;;;;2.70;2.50;;;22.20;56.30;;;;;;6159066;23;20241;-83
2022/08/26 02:51:36;;;;;;;3.33;2.40;;;22.20;56.30;;;;;;6134603;23;20576;-85
2022/08/26 02:54:03;;;;;;;2.72;2.53;;;22.20;56.40;;;;;;6159629;23;20599;-83
2022/08/26 02:56:32;;;;;;;2.63;2.42;;;22.20;56.50;;;;;;6085862;23;20594;-84
2022/08/26 02:58:59;;;;;;;2.40;2.20;;;22.20;56.50;;;;;;6134439;23;20213;-85
2022/08/26 03:01:29;;;;;;;2.25;2.05;;;22.20;56.40;;;;;;6133679;23;20208;-84
2022/08/26 03:03:56;;;;;;;2.53;2.33;;;22.20;56.40;;;;;;6109788;23;20159;-83
2022/08/26 03:06:23;;;;;;;2.70;2.50;;;22.20;56.50;;;;;;6109437;23;20202;-84
2022/08/26 03:08:49;;;;;;;2.60;2.40;;;22.20;56.40;;;;;;6158395;23;20257;-85
2022/08/26 03:11:17;;;;;;;2.50;2.30;;;22.20;56.40;;;;;;6109250;23;20582;-84
2022/08/26 03:13:44;;;;;;;2.60;2.40;;;22.20;56.50;;;;;;6185627;23;20157;-83
2022/08/26 03:16:10;;;;;;;2.42;2.22;;;22.20;56.50;;;;;;6158933;23;20526;-84
2022/08/26 03:18:36;;;;;;;2.40;2.10;;;22.20;56.50;;;;;;6185672;23;20625;-84
2022/08/26 03:21:06;;;;;;;2.50;2.30;;;22.20;56.50;;;;;;6134378;23;20147;-82
2022/08/26 03:23:32;;;;;;;2.50;2.30;;;22.20;56.50;;;;;;6185263;23;20482;-83
2022/08/26 03:25:57;;;;;;;2.40;2.20;;;22.20;56.60;;;;;;6134586;23;20255;-82
2022/08/26 03:28:23;;;;;;;2.53;2.33;;;22.20;56.60;;;;;;6159013;23;20589;-83
2022/08/26 03:30:49;;;;;;;2.50;2.30;;;22.20;56.60;;;;;;6158993;23;20569;-83
2022/08/26 03:33:15;;;;;;;2.67;2.47;;;22.20;56.60;;;;;;6159745;23;20143;-84
2022/08/26 03:35:42;;;;;;;2.70;2.50;;;22.20;56.70;;;;;;6134299;23;20147;-85
2022/08/26 03:38:08;;;;;;;3.03;2.53;;;22.10;56.60;;;;;;6158842;23;20147;-84
2022/08/26 03:40:35;;;;;;;2.50;2.30;;;22.20;56.60;;;;;;6134427;23;20146;-82
2022/08/26 03:43:02;;;;;;;2.53;2.33;;;22.20;56.60;;;;;;6134215;23;20193;-86
2022/08/26 03:45:29;;;;;;;2.30;2.10;;;22.20;56.70;;;;;;6134877;23;20529;-84
2022/08/26 03:47:55;;;;;;;2.33;2.13;;;22.20;57.30;;;;;;6160467;23;20135;-84
2022/08/26 03:50:21;;;;;;;3.28;2.50;;;22.10;56.70;;;;;;6160742;23;20578;-85
2022/08/26 03:52:48;;;;;;;2.70;2.50;;;22.10;56.70;;;;;;6187170;23;20496;-82
2022/08/26 03:55:14;;;;;;;3.38;2.80;;;22.10;56.60;;;;;;6160694;23;20153;-83
2022/08/26 03:57:40;;;;;;;2.30;2.10;;;22.20;56.70;;;;;;6160635;23;20142;-82
2022/08/26 04:00:07;;;;;;;2.35;2.15;;;22.10;56.70;;;;;;6160210;23;20223;-82
2022/08/26 04:02:33;;;;;;;2.40;2.20;;;22.10;56.70;;;;;;6135903;23;20151;-82
2022/08/26 04:05:00;;;;;;;2.70;2.50;;;22.20;57.40;;;;;;6160566;23;20150;-82
2022/08/26 04:07:26;;;;;;;3.15;2.65;;;22.10;56.70;;;;;;6160267;23;20255;-83
2022/08/26 04:09:55;;;;;;;2.13;2.00;;;22.10;56.70;;;;;;6160598;23;20167;-84
2022/08/26 04:12:21;;;;;;;2.67;2.42;;;22.20;56.80;;;;;;6160564;23;20147;-83
2022/08/26 04:14:48;;;;;;;2.35;2.13;;;22.10;56.80;;;;;;6135682;23;20216;-82
2022/08/26 04:17:14;;;;;;;2.33;2.13;;;22.20;56.80;;;;;;6186672;23;20149;-82
2022/08/26 04:19:40;;;;;;;2.70;2.50;;;22.10;56.70;;;;;;6160397;23;20135;-84
2022/08/26 04:22:07;;;;;;;2.50;2.30;;;22.10;56.80;;;;;;6160421;23;20146;-82
2022/08/26 04:24:33;;;;;;;2.55;2.35;;;22.10;56.80;;;;;;6135851;23;20154;-82
2022/08/26 04:27:02;;;;;;;2.20;2.00;;;22.10;56.80;;;;;;6160988;23;20134;-82
2022/08/26 04:29:30;;;;;;;2.20;2.00;;;22.10;56.80;;;;;;6135637;23;20495;-83
2022/08/26 04:31:58;;;;;;;2.38;2.17;;;22.10;56.80;;;;;;6135149;23;20607;-82
2022/08/26 04:34:27;;;;;;;2.50;2.30;;;22.10;56.80;;;;;;6135129;23;20151;-83
2022/08/26 04:36:55;;;;;;;2.67;2.10;;;22.00;56.80;;;;;;6135582;23;20159;-83
2022/08/26 04:39:22;;;;;;;2.28;2.08;;;22.10;56.90;;;;;;6086973;23;20165;-82
2022/08/26 04:41:50;;;;;;;2.50;2.30;;;22.00;56.90;;;;;;6134950;23;20602;-82
2022/08/26 04:44:17;;;;;;;2.33;2.13;;;22.10;56.90;;;;;;6135340;23;20197;-84
2022/08/26 04:46:45;;;;;;;2.85;2.40;;;22.10;57.00;;;;;;6110451;23;20598;-84
2022/08/26 04:49:12;;;;;;;2.47;2.28;;;22.10;57.00;;;;;;6110306;23;20205;-82
2022/08/26 04:51:38;;;;;;;2.60;2.40;;;22.10;57.10;;;;;;6086008;23;20154;-82
2022/08/26 04:54:05;;;;;;;2.42;2.22;;;22.10;57.10;;;;;;6160294;23;20597;-84
2022/08/26 04:56:35;;;;;;;2.35;2.15;;;22.10;57.70;;;;;;6109964;23;20491;-85
2022/08/26 04:59:02;;;;;;;1.95;1.83;;;22.00;57.00;;;;;;6186486;23;20459;-85
2022/08/26 05:01:28;;;;;;;2.28;2.08;;;22.10;57.00;;;;;;6186394;23;20494;-82
2022/08/26 05:03:54;;;;;;;2.38;2.17;;;22.10;57.00;;;;;;6160388;23;20142;-83
2022/08/26 05:06:20;;;;;;;2.38;2.17;;;22.10;57.00;;;;;;6135317;23;20198;-83
2022/08/26 05:08:46;;;;;;;2.30;2.10;;;22.10;57.50;;;;;;6186195;23;20486;-85
2022/08/26 05:11:12;;;;;;;2.00;1.90;;;22.00;57.70;;;;;;6160148;23;20127;-82
2022/08/26 05:13:38;;;;;;;2.88;2.03;;;22.00;57.80;;;;;;6136221;23;20535;-84
2022/08/26 05:16:05;;;;;;;2.42;2.22;;;22.00;58.20;;;;;;6159855;23;20149;-82
2022/08/26 05:18:32;;;;;;;2.15;2.00;;;22.00;58.50;;;;;;6135438;23;20222;-83
2022/08/26 05:20:58;;;;;;;2.58;2.38;;;21.90;58.70;;;;;;6135335;23;20157;-82
2022/08/26 05:23:25;;;;;;;1.98;1.88;;;21.90;59.00;;;;;;6160349;23;20194;-83
2022/08/26 05:25:52;;;;;;;1.88;1.77;;;21.90;59.20;;;;;;6186535;23;20162;-82
2022/08/26 05:28:20;;;;;;;2.30;2.10;;;21.90;59.50;;;;;;6135026;23;20170;-84
2022/08/26 05:30:49;;;;;;;2.13;1.95;;;21.90;59.60;;;;;;6134676;23;20155;-83
2022/08/26 05:33:18;;;;;;;2.10;2.00;;;21.90;59.80;;;;;;6109888;23;20151;-85
2022/08/26 05:35:44;;;;;;;2.13;1.92;;;21.90;59.80;;;;;;6086169;23;20150;-83
2022/08/26 05:38:12;;;;;;;2.20;2.10;;;22.00;59.80;;;;;;6159691;23;20231;-83
2022/08/26 05:40:43;;;;;;;2.97;2.10;;;22.00;59.40;;;;;;6160154;23;20130;-82
2022/08/26 05:43:12;;;;;;;1.95;1.85;;;21.90;59.20;;;;;;6136004;23;20504;-83
2022/08/26 05:45:43;;;;;;;2.33;2.13;;;22.00;59.60;;;;;;6086357;23;20150;-83
2022/08/26 05:48:11;;;;;;;2.10;1.90;;;22.00;59.60;;;;;;6134358;23;20201;-83
2022/08/26 05:50:40;;;;;;;2.03;1.90;;;22.10;59.20;;;;;;6134294;23;20617;-85
2022/08/26 05:53:08;;;;;;;2.00;1.90;;;22.10;59.30;;;;;;6109898;23;20230;-84
2022/08/26 05:55:51;;;;;;;2.33;2.13;;;22.10;59.30;;;;;;6159169;23;20162;-85
2022/08/26 05:58:23;;;;;;;2.28;2.05;;;22.10;59.40;;;;;;6044864;23;20158;-84
2022/08/26 06:01:00;;;;;;;2.15;2.00;;;22.10;59.20;;;;;;6133871;23;20155;-82
2022/08/26 06:03:32;;;;;;;2.05;1.95;;;22.10;59.20;;;;;;6110117;23;20158;-82
2022/08/26 06:05:58;;;;;;;2.03;1.83;;;22.20;58.90;;;;;;6133207;23;20202;-84
2022/08/26 06:08:24;;;;;;;2.28;2.08;;;22.10;58.90;;;;;;6129734;23;20504;-83
2022/08/26 06:10:52;;;;;;;2.20;2.00;;;22.20;59.40;;;;;;6155912;23;20136;-84
2022/08/26 06:13:20;;;;;;;2.30;2.10;;;22.20;59.30;;;;;;6130465;23;20265;-84
2022/08/26 06:15:47;;;;;;;2.40;2.20;;;22.20;59.10;;;;;;6130501;23;20132;-82
2022/08/26 06:18:14;;;;;;;2.28;2.08;;;22.20;59.30;;;;;;6130178;23;20733;-81
2022/08/26 06:20:42;;;;;;;2.08;1.88;;;22.30;59.30;;;;;;6130281;23;20182;-84
2022/08/26 06:25:49;;;;;;;2.10;2.00;;;22.30;59.40;;;;;;6132169;23;20136;-84
2022/08/26 06:28:15;;;;;;;2.20;2.00;;;22.30;59.40;;;;;;6129816;23;20626;-84
2022/08/26 06:30:41;;;;;;;1.98;1.80;;;22.30;59.60;;;;;;6129781;23;20135;-82
2022/08/26 06:33:07;;;;;;;2.20;2.00;;;22.30;59.90;;;;;;6129898;23;20151;-84
2022/08/26 06:35:41;;;;;;;2.42;2.22;;;22.30;59.80;;;;;;6154522;23;20431;-82
2022/08/26 06:38:08;;;;;;;2.47;2.28;;;22.40;60.10;;;;;;6105433;23;20155;-82
2022/08/26 06:40:41;;;;;;;2.22;2.03;;;22.30;60.30;;;;;;6130017;23;20214;-82
2022/08/26 06:43:09;;;;;;;2.35;2.15;;;22.30;60.30;;;;;;6153755;23;20188;-84
2022/08/26 06:45:37;;;;;;;2.03;1.92;;;22.30;60.70;;;;;;6081103;23;20162;-84
2022/08/26 06:48:05;;;;;;;2.50;2.30;;;22.30;60.70;;;;;;6129659;23;20163;-84
2022/08/26 06:50:33;;;;;;;3.35;2.47;;;22.20;60.70;;;;;;6130308;23;20154;-84
2022/08/26 06:53:01;;;;;;;2.72;2.53;;;22.30;61.20;;;;;;6104823;23;20217;-83
2022/08/26 06:55:29;;;;;;;2.70;2.50;;;22.30;61.80;;;;;;6104448;23;20158;-82
2022/08/26 06:57:55;;;;;;;2.60;2.40;;;22.30;61.90;;;;;;6104431;23;20588;-82
2022/08/26 07:00:21;;;;;;;2.67;2.40;;;22.20;62.00;;;;;;6105401;23;20198;-85
2022/08/26 07:02:47;;;;;;;2.63;2.42;;;22.30;62.00;;;;;;6129640;23;20163;-84
2022/08/26 07:05:12;;;;;;;2.47;2.28;;;22.20;61.60;;;;;;6130293;23;20504;-82
2022/08/26 07:07:38;;;;;;;2.80;2.60;;;22.20;62.00;;;;;;6135300;23;20571;-82
2022/08/26 07:10:04;;;;;;;2.78;2.58;;;22.20;62.10;;;;;;6159296;23;20602;-83
2022/08/26 07:12:30;;;;;;;3.05;2.75;;;22.20;62.00;;;;;;6159532;23;20135;-83
2022/08/26 07:14:56;;;;;;;2.78;2.58;;;22.30;62.20;;;;;;6134402;23;20153;-84
2022/08/26 07:17:22;;;;;;;3.40;2.70;;;22.20;61.90;;;;;;6134537;23;20139;-83
2022/08/26 07:19:48;;;;;;;2.97;2.75;;;22.30;62.20;;;;;;6159243;23;20139;-85
2022/08/26 07:22:14;;;;;;;3.58;2.70;;;22.30;62.10;;;;;;6160842;23;20205;-85
2022/08/26 07:24:40;;;;;;;3.00;2.70;;;22.20;62.20;;;;;;6160918;23;20147;-85
2022/08/26 07:27:08;;;;;;;3.72;2.80;;;22.20;62.50;;;;;;6161252;23;20135;-85
2022/08/26 07:29:34;;;;;;;3.00;2.70;;;22.20;62.70;;;;;;6160672;23;20498;-84
2022/08/26 07:32:02;;;;;;;3.58;3.28;;;22.20;62.90;;;;;;6161070;23;20165;-84
2022/08/26 07:34:31;;;;;;;3.47;3.17;;;22.20;63.00;;;;;;6111532;23;20179;-84
2022/08/26 07:36:59;;;;;;;3.58;3.28;;;22.20;63.00;;;;;;6088247;23;20182;-83
2022/08/26 07:39:26;;;;;;;3.83;3.53;;;22.20;63.10;;;;;;6087788;23;20165;-83
2022/08/26 07:41:52;;;;;;;3.95;3.58;;;22.20;63.20;;;;;;6062581;23;20611;-84
2022/08/26 07:44:18;;;;;;;3.70;3.40;;;22.30;63.40;;;;;;6161370;23;20161;-82
2022/08/26 07:46:44;;;;;;;4.32;3.92;;;22.30;63.40;;;;;;6160872;23;20131;-82
2022/08/26 07:49:10;;;;;;;3.95;3.60;;;22.30;63.40;;;;;;6137027;23;20249;-83
2022/08/26 07:51:36;;;;;;;3.90;3.60;;;22.30;64.20;;;;;;6136733;23;20419;-84
2022/08/26 07:54:03;;;;;;;4.80;4.30;;;22.30;63.40;;;;;;6160811;23;20214;-84
2022/08/26 07:56:29;;;;;;;4.53;4.13;;;22.30;63.40;;;;;;6161005;23;20162;-85
2022/08/26 07:58:55;;;;;;;5.00;4.30;;;22.30;63.50;;;;;;6160746;23;20135;-84
2022/08/26 08:01:22;;;;;;;4.60;4.20;;;22.30;63.40;;;;;;6186956;23;20559;-85
2022/08/26 08:03:50;;;;;;;4.57;4.18;;;22.20;63.50;;;;;;6161387;23;20555;-85
2022/08/26 08:06:17;;;;;;;4.90;4.50;;;22.20;63.50;;;;;;6161200;23;20190;-85
2022/08/26 08:08:43;;;;;;;4.57;4.18;;;22.20;63.60;;;;;;6135712;23;20634;-84
2022/08/26 08:11:10;;;;;;;4.63;4.22;;;22.20;63.70;;;;;;6160828;23;20475;-83
2022/08/26 08:13:36;;;;;;;4.40;4.00;;;22.20;63.70;;;;;;6136877;23;20147;-83
2022/08/26 08:16:03;;;;;;;4.60;4.20;;;22.10;63.60;;;;;;6148085;23;20201;-83
2022/08/26 08:18:29;;;;;;;4.72;4.32;;;22.20;63.50;;;;;;6160579;23;20151;-82
2022/08/26 08:20:55;;;;;;;4.90;4.40;;;22.30;63.30;;;;;;6135665;23;20197;-84
2022/08/26 08:23:22;;;;;;;5.15;4.65;;;22.30;63.20;;;;;;6160552;23;20139;-84
2022/08/26 08:25:48;;;;;;;4.82;4.43;;;22.40;63.30;;;;;;6160217;23;20135;-83
2022/08/26 08:28:15;;;;;;;5.05;4.65;;;22.30;63.10;;;;;;6186269;23;20218;-84
2022/08/26 08:30:40;;;;;;;4.93;4.50;;;22.40;63.00;;;;;;6186161;23;20182;-84
2022/08/26 08:33:06;;;;;;;5.40;4.90;;;22.30;63.00;;;;;;6185980;23;20131;-83
2022/08/26 08:35:33;;;;;;;5.35;4.85;;;22.40;63.10;;;;;;6160018;23;20329;-84
2022/08/26 08:37:59;;;;;;;4.68;4.28;;;22.30;63.20;;;;;;6135999;23;20150;-85
2022/08/26 08:40:25;;;;;;;5.07;4.45;;;22.30;63.20;;;;;;6159919;23;20460;-83
2022/08/26 08:43:03;;;;;;;5.50;4.82;;;22.30;63.40;;;;;;6159840;23;20147;-85
2022/08/26 08:45:34;;;;;;;5.22;4.75;;;22.30;63.20;;;;;;6138121;23;20150;-85
2022/08/26 08:48:02;;;;;;;5.28;4.78;;;22.30;63.40;;;;;;6160014;23;20158;-84
2022/08/26 08:50:43;;;;;;;6.03;5.30;;;22.40;63.40;;;;;;6160578;23;20139;-84
2022/08/26 08:53:15;;;;;;;5.88;5.38;;;22.30;63.30;;;;;;6135791;23;20158;-84
2022/08/26 08:55:56;;;;;;;5.60;5.10;;;22.40;63.20;;;;;;6136757;23;20158;-83
2022/08/26 08:58:31;;;;;;;7.00;5.88;;;22.30;63.10;;;;;;6160338;23;20539;-83
2022/08/26 09:00:59;;;;;;;6.28;5.68;;;22.40;63.20;;;;;;6135540;23;20212;-83
2022/08/26 09:03:54;;;;;;;6.40;5.80;;;22.40;63.10;;;;;;6160791;23;20147;-83
2022/08/26 09:06:20;;;;;;;5.95;5.35;;;22.40;63.20;;;;;;6073878;23;20532;-82
2022/08/26 09:08:47;;;;;;;6.43;5.82;;;22.50;62.90;;;;;;6071523;23;20172;-81
2022/08/26 09:11:14;;;;;;;6.15;5.65;;;22.40;62.90;;;;;;6048812;23;20247;-82
2022/08/26 09:13:53;;;;;;;6.15;5.38;;;22.30;63.10;;;;;;6072844;23;20209;-85
2022/08/26 09:16:43;;;;;;;6.70;6.10;;;22.40;63.20;;;;;;6052459;23;20208;-83
2022/08/26 09:19:32;;;;;;;5.95;5.45;;;22.40;63.40;;;;;;6059490;23;20220;-86
2022/08/26 09:22:04;;;;;;;6.28;5.35;;;22.30;63.50;;;;;;6105447;23;20163;-84
2022/08/26 09:24:38;;;;;;;5.65;5.15;;;22.30;63.80;;;;;;6078530;23;20143;-86
2022/08/26 09:27:45;;;;;;;5.53;5.00;;;22.30;63.50;;;;;;6053365;23;20163;-84
2022/08/26 09:30:28;;;;;;;6.30;5.70;;;22.30;63.40;;;;;;6079123;23;20204;-86
2022/08/26 09:33:15;;;;;;;6.45;5.57;;;22.20;63.40;;;;;;6082126;23;20164;-87
2022/08/26 09:35:47;;;;;;;7.05;6.40;;;22.20;63.60;;;;;;5994305;23;20162;-87
2022/08/26 09:38:28;;;;;;;6.10;5.55;;;22.10;63.60;;;;;;6052206;23;20509;-86
2022/08/26 09:42:04;;;;;;;6.45;5.85;;;22.20;63.70;;;;;;6022543;23;20182;-88
2022/08/26 09:44:31;;;;;;;5.97;5.43;;;22.20;63.80;;;;;;5969862;23;20174;-86
2022/08/26 09:47:30;;;;;;;6.95;6.35;;;22.20;63.70;;;;;;5920712;24;20280;-86
2022/08/26 09:50:19;;;;;;;6.32;5.80;;;22.30;63.50;;;;;;5873440;24;20176;-88
2022/08/26 09:52:47;;;;;;;7.95;6.57;;;22.30;63.10;;;;;;5937155;24;20153;-86
2022/08/26 09:55:25;;;;;;;6.97;6.28;;;22.40;63.10;;;;;;5918452;24;20168;-88
2022/08/26 09:58:15;;;;;;;;;;;;;;;;;;;;;
2022/08/26 10:01:11;;;;;;;7.97;6.38;;;22.40;63.60;;;;;;5787726;24;20159;-87
2022/08/26 10:03:39;;;;;;;6.88;6.25;;;22.40;63.50;;;;;;5786198;24;20167;-85
2022/08/26 10:06:37;;;;;;;6.60;6.00;;;22.40;63.40;;;;;;5807174;24;20216;-86
2022/08/26 10:09:15;;;;;;;7.10;6.40;;;22.50;63.00;;;;;;5808614;24;20214;-87
2022/08/26 10:11:50;;;;;;;7.50;6.80;;;22.50;62.90;;;;;;5831876;24;20186;-86
2022/08/26 10:14:40;;;;;;;7.88;6.30;;;22.50;62.90;;;;;;5853272;24;20154;-86
2022/08/26 10:27:47;;;;;;;7.80;5.97;;;22.60;63.20;;;;;;5900212;24;20156;-86
2022/08/26 10:30:22;;;;;;;6.90;6.20;;;22.60;63.10;;;;;;5881587;24;20238;-86
2022/08/26 10:33:06;;;;;;;6.50;5.90;;;22.60;63.20;;;;;;5911024;24;20259;-86
2022/08/26 10:36:47;;;;;;;;;;;;;;;;;;;;;
2022/08/26 10:39:05;;;;;;;6.57;5.97;;;22.60;63.30;;;;;;5997734;23;20192;-89
2022/08/26 10:41:53;;;;;;;8.95;6.10;;;22.60;63.30;;;;;;6016046;23;20614;-86
2022/08/26 10:44:20;;;;;;;6.05;5.43;;;22.50;63.20;;;;;;5970190;23;20230;-85
2022/08/26 10:46:52;;;;;;;7.03;5.80;;;22.60;63.30;;;;;;5993058;23;20154;-84
2022/08/26 10:49:19;;;;;;;6.07;5.47;;;22.60;63.20;;;;;;5950900;23;20182;-84
2022/08/26 10:51:59;;;;;;;6.35;5.60;;;22.50;63.00;;;;;;5972903;23;20396;-87
2022/08/26 10:55:01;;;;;;;6.35;5.75;;;22.60;63.30;;;;;;5951329;23;20154;-88
2022/08/26 10:57:45;;;;;;;6.35;5.75;;;22.50;63.30;;;;;;5976082;23;20154;-87
2022/08/26 11:03:39;;;;;;;7.20;6.55;;;22.60;63.10;;;;;;5958616;24;20186;-85
2022/08/26 11:06:33;;;;;;;7.35;5.75;;;22.60;63.30;;;;;;5952911;24;20330;-87
2022/08/26 11:09:02;;;;;;;8.32;6.68;;;22.70;63.10;;;;;;5933349;24;20188;-86
2022/08/26 11:11:49;;;;;;;7.07;6.35;;;22.70;62.80;;;;;;5965397;24;20172;-84
2022/08/26 11:14:22;;;;;;;7.90;7.10;;;22.70;62.90;;;;;;5920166;24;20148;-89
2022/08/26 11:17:12;;;;;;;11.63;7.05;;;22.70;62.90;;;;;;5989422;24;20227;-87
2022/08/26 11:19:52;;;;;;;8.05;7.07;;;22.70;62.70;;;;;;5916990;24;20175;-86
2022/08/26 11:22:37;;;;;;;7.53;6.25;;;22.80;62.40;;;;;;5965051;24;20345;-87
2022/08/26 11:25:18;;;;;;;7.03;6.32;;;22.80;62.80;;;;;;5968477;24;20140;-86
2022/08/26 11:28:53;;;;;;;7.65;6.45;;;22.80;62.40;;;;;;5944789;24;20181;-86
2022/08/26 11:31:33;;;;;;;;;;;;;;;;;;;;;
2022/08/26 11:34:58;;;;;;;8.15;6.57;;;22.90;62.50;;;;;;5953931;24;20392;-88
2022/08/26 11:37:43;;;;;;;8.60;6.82;;;22.80;62.40;;;;;;5939920;24;20216;-86
2022/08/26 11:40:27;;;;;;;6.70;5.78;;;22.90;62.70;;;;;;5975810;23;20165;-86
2022/08/26 11:42:59;;;;;;;7.07;6.38;;;22.90;62.70;;;;;;5983362;23;20314;-87
2022/08/26 11:45:45;;;;;;;7.30;6.25;;;22.90;62.50;;;;;;6005763;23;20219;-86
2022/08/26 11:48:35;;;;;;;7.45;6.50;;;22.90;62.40;;;;;;6118693;23;20158;-85
2022/08/26 11:51:14;;;;;;;7.95;7.15;;;22.90;62.30;;;;;;6096034;23;20160;-85
2022/08/26 11:53:51;;;;;;;6.35;5.65;;;22.90;62.90;;;;;;6092881;23;20151;-86
2022/08/26 11:56:43;;;;;;;6.80;6.15;;;22.90;62.90;;;;;;6139241;23;20128;-85
2022/08/26 11:59:24;;;;;;;6.60;6.00;;;22.90;62.80;;;;;;6069697;23;20155;-84
2022/08/26 12:01:55;;;;;;;8.23;6.90;;;23.00;62.90;;;;;;6050218;23;20166;-86
2022/08/26 12:04:28;;;;;;;7.45;6.22;;;23.00;62.70;;;;;;6067728;23;20261;-85
2022/08/26 12:06:55;;;;;;;7.50;6.53;;;23.00;62.70;;;;;;6133651;23;20202;-86
2022/08/26 12:09:51;;;;;;;8.45;6.30;;;23.00;62.40;;;;;;6173139;23;20256;-86
2022/08/26 12:12:29;;;;;;;6.78;6.07;;;23.10;62.30;;;;;;6170805;23;20154;-84
2022/08/26 12:15:13;;;;;;;6.85;5.30;;;23.10;62.20;;;;;;6146086;23;20162;-86
2022/08/26 13:38:35;;;;;;;6.97;6.28;;;23.40;60.80;;;;;;6218719;22;20280;-83
2022/08/26 13:42:26;;;;;;;7.18;6.30;;;23.40;60.90;;;;;;6106695;23;20218;-85
2022/08/26 13:44:26;;;;;;;7.10;5.95;;;23.50;61.10;;;;;;5907124;24;20197;-84
2022/08/26 13:46:57;;;;;;;6.38;5.70;;;23.50;60.80;;;;;;5892255;24;20450;-85
2022/08/26 13:49:25;;;;;;;6.82;6.20;;;23.50;61.20;;;;;;5890447;24;20179;-84
2022/08/26 13:52:02;;;;;;;8.52;5.53;;;23.50;60.70;;;;;;5911105;24;20210;-83
2022/08/26 13:54:35;;;;;;;7.22;5.47;;;23.60;60.80;;;;;;5890139;24;20155;-84
2022/08/26 13:57:29;;;;;;;;;;;;;;;;;;;;;
2022/08/26 14:00:06;;;;;;;8.68;5.80;;;23.50;60.80;;;;;;5880988;24;20193;-84
2022/08/26 14:02:41;;;;;;;5.70;5.18;;;23.40;60.90;;;;;;5859063;24;20236;-84
2022/08/26 14:05:09;;;;;;;7.03;6.00;;;23.40;60.90;;;;;;5881506;24;20568;-85
2022/08/26 14:07:39;;;;;;;7.60;5.68;;;23.40;60.90;;;;;;5882982;24;20522;-88
2022/08/26 14:10:08;;;;;;;8.68;6.68;;;23.40;61.00;;;;;;5885098;24;20231;-86
2022/08/26 14:12:37;;;;;;;8.88;6.30;;;23.40;61.20;;;;;;5867352;24;20530;-85
2022/08/26 14:15:16;;;;;;;8.57;5.40;;;23.40;61.10;;;;;;5880840;24;20233;-84
2022/08/26 14:18:10;;;;;;;7.65;6.85;;;23.40;61.30;;;;;;5902136;24;20208;-86
2022/08/26 14:20:37;;;;;;;8.43;6.80;;;23.30;61.10;;;;;;5942561;23;20245;-86
2022/08/26 14:23:22;;;;;;;;;;;;;;;;;;;;;
2022/08/26 14:26:06;;;;;;;7.85;5.70;;;23.30;61.50;;;;;;5939616;24;20183;-86
2022/08/26 14:28:40;;;;;;;6.47;5.88;;;23.40;61.40;;;;;;5912360;24;20205;-87
2022/08/26 14:31:18;;;;;;;7.03;6.28;;;23.40;61.50;;;;;;5887481;24;20155;-86
2022/08/26 14:33:47;;;;;;;7.60;6.22;;;23.40;61.40;;;;;;5986973;24;20624;-85
2022/08/26 14:36:31;;;;;;;6.57;5.97;;;23.30;61.50;;;;;;5961029;24;20155;-87
2022/08/26 14:39:07;;;;;;;6.60;5.93;;;23.30;62.50;;;;;;5936406;24;20283;-86
2022/08/26 14:42:24;;;;;;;;;;;;;;;;;;;;;
2022/08/26 14:44:57;;;;;;;6.43;5.88;;;23.40;61.60;;;;;;5980635;24;20175;-82
2022/08/26 14:47:26;;;;;;;8.70;6.35;;;23.30;61.40;;;;;;5986725;24;20305;-85
2022/08/26 14:49:57;;;;;;;8.40;6.25;;;23.40;61.40;;;;;;5964416;24;20249;-87
2022/08/26 14:55:24;;;;;;;7.40;6.68;;;23.40;61.70;;;;;;5997644;23;20162;-87
2022/08/26 15:08:50;;;;;;;;;;;;;;;;;;;;;
2022/08/26 15:11:59;;;;;;;7.28;6.53;;;23.40;62.10;;;;;;6111527;23;20206;-84